Time;durP1;ratioP1;P1;durP2;ratioP2;P2;SDS_P1;SDS_P2;PMS_P1;PMS_P2;Temp;Humidity;BMP_temperature;BMP_pressure;BME280_temperature;BME280_humidity;BME280_pressure;Samples;Min_cycle;Max_cycle;Signal;HPM_P1;HPM_P2
2022/12/12 00:02:08;;;;;;;28.70;17.23;;;;;;;-1.82;94.88;99212.98;1726599;81;25779;-77
2022/12/12 00:04:34;;;;;;;30.17;16.90;;;;;;;-1.82;94.94;99219.03;1728544;82;28345;-77
2022/12/12 00:07:00;;;;;;;32.73;17.40;;;;;;;-1.80;94.95;99222.38;1718773;81;26114;-77
2022/12/12 00:09:27;;;;;;;27.10;15.58;;;;;;;-1.80;94.97;99217.13;1702352;82;25711;-77
2022/12/12 00:11:53;;;;;;;28.42;16.02;;;;;;;-1.78;94.81;99215.66;1719286;81;25926;-77
2022/12/12 00:14:20;;;;;;;32.00;17.37;;;;;;;-1.83;94.58;99210.83;1721406;81;26345;-77
2022/12/12 00:16:46;;;;;;;29.55;16.17;;;;;;;-1.83;94.65;99213.94;1706894;81;27445;-77
2022/12/12 00:19:12;;;;;;;27.75;15.15;;;;;;;-1.83;94.72;99212.14;1701004;83;25796;-77
2022/12/12 00:21:38;;;;;;;29.95;16.32;;;;;;;-1.82;94.69;99207.73;1725448;81;25783;-77
2022/12/12 00:24:06;;;;;;;29.80;15.72;;;;;;;-1.82;94.75;99211.16;1713253;81;25755;-77
2022/12/12 00:26:34;;;;;;;27.42;16.32;;;;;;;-1.81;94.80;99208.05;1722400;82;25767;-77
2022/12/12 00:29:03;;;;;;;24.82;15.20;;;;;;;-1.79;94.80;99212.20;1718693;81;27406;-77
2022/12/12 00:31:30;;;;;;;26.52;14.83;;;;;;;-1.80;94.70;99212.34;1726509;81;25979;-77
2022/12/12 00:33:57;;;;;;;27.40;14.80;;;;;;;-1.80;94.71;99209.72;1726856;82;25706;-77
2022/12/12 00:36:28;;;;;;;26.97;15.38;;;;;;;-1.79;94.75;99208.73;1721861;82;25769;-77
2022/12/12 00:38:54;;;;;;;;;;;;;;;-1.78;94.81;99211.24;1729086;81;25739;-77
2022/12/12 00:41:21;;;;;;;24.50;14.10;;;;;;;-1.76;94.78;99207.16;1721220;82;27464;-77
2022/12/12 00:43:48;;;;;;;24.18;13.08;;;;;;;-1.80;94.72;99205.31;1700931;82;26512;-77
2022/12/12 00:46:18;;;;;;;23.07;13.43;;;;;;;-1.80;94.69;99202.69;1702945;83;25814;-77
2022/12/12 00:48:44;;;;;;;23.40;14.93;;;;;;;-1.81;94.62;99198.88;1721907;82;25928;-77
2022/12/12 00:51:16;;;;;;;26.70;14.63;;;;;;;-1.80;94.71;99199.23;1719687;82;25822;-77
2022/12/12 00:53:42;;;;;;;23.40;13.28;;;;;;;-1.80;94.67;99203.16;1698381;82;27462;-77
2022/12/12 00:56:09;;;;;;;21.82;13.35;;;;;;;-1.79;94.76;99199.55;1726547;82;25817;-77
2022/12/12 00:58:36;;;;;;;23.85;13.25;;;;;;;-1.78;94.82;99203.38;1720857;81;26399;-77
2022/12/12 01:01:12;;;;;;;20.65;13.03;;;;;;;-1.79;94.66;99201.70;1703933;81;26539;-77
2022/12/12 01:03:41;;;;;;;23.27;13.43;;;;;;;-1.79;94.71;99207.42;1694926;82;26407;-77
2022/12/12 01:06:09;;;;;;;21.17;11.95;;;;;;;-1.78;94.74;99209.09;1732506;81;27448;-77
2022/12/12 01:08:37;;;;;;;20.65;12.68;;;;;;;-1.78;94.71;99211.72;1720650;81;25781;-77
2022/12/12 01:11:04;;;;;;;20.23;12.43;;;;;;;-1.80;94.71;99204.47;1719836;82;25788;-77
2022/12/12 01:13:31;;;;;;;18.75;11.20;;;;;;;-1.79;94.73;99198.23;1701952;82;25908;-77
2022/12/12 01:15:58;;;;;;;15.13;10.43;;;;;;;-1.80;94.70;99191.35;1731053;82;25880;-77
2022/12/12 01:18:25;;;;;;;19.37;11.45;;;;;;;-1.81;94.70;99182.64;1696049;82;27441;-77
2022/12/12 01:20:51;;;;;;;16.10;10.45;;;;;;;-1.86;94.64;99178.30;1723614;81;26017;-77
2022/12/12 01:23:18;;;;;;;19.40;11.60;;;;;;;-1.86;94.78;99183.55;1723277;81;26320;-77
2022/12/12 01:25:44;;;;;;;18.82;11.03;;;;;;;-1.84;94.89;99175.55;1723949;81;25743;-77
2022/12/12 01:28:10;;;;;;;17.32;10.10;;;;;;;-1.83;94.92;99168.01;1724505;82;25777;-77
2022/12/12 01:30:37;;;;;;;15.28;10.30;;;;;;;-1.86;94.77;99159.93;1716196;81;28202;-77
2022/12/12 01:33:04;;;;;;;15.45;10.30;;;;;;;-1.88;94.88;99155.31;1727669;81;26482;-77
2022/12/12 01:35:33;;;;;;;18.62;10.65;;;;;;;-1.88;94.96;99155.82;1719525;81;25758;-77
2022/12/12 01:37:59;;;;;;;15.75;10.32;;;;;;;-1.86;95.09;99150.75;1730698;81;25878;-77
2022/12/12 01:40:29;;;;;;;16.85;9.83;;;;;;;-1.85;95.09;99150.27;1704486;83;26421;-77
2022/12/12 01:42:55;;;;;;;16.10;10.38;;;;;;;-1.85;95.03;99148.95;1724190;81;27504;-77
2022/12/12 01:46:02;;;;;;;15.72;9.88;;;;;;;-1.82;95.13;99149.99;1728581;81;25842;-77
2022/12/12 01:48:34;;;;;;;18.65;10.45;;;;;;;-1.80;95.18;99144.11;1729538;81;25804;-78
2022/12/12 01:51:05;;;;;;;16.17;9.43;;;;;;;-1.78;95.33;99136.92;1725315;81;26541;-77
2022/12/12 01:53:33;;;;;;;17.70;9.60;;;;;;;-1.76;95.31;99129.25;1744583;81;27160;-77
2022/12/12 01:56:05;;;;;;;17.92;10.08;;;;;;;-1.76;95.18;99135.81;1717556;82;28262;-77
2022/12/12 01:58:32;;;;;;;16.57;10.18;;;;;;;-1.77;95.13;99137.24;1725400;82;25731;-77
2022/12/12 02:00:58;;;;;;;15.18;8.33;;;;;;;-1.78;95.23;99141.69;1690587;83;25875;-77
2022/12/12 02:03:25;;;;;;;15.85;9.55;;;;;;;-1.78;95.22;99139.55;1718288;82;25955;-77
2022/12/12 02:05:59;;;;;;;15.95;9.63;;;;;;;-1.77;95.38;99145.95;1725904;82;25804;-77
2022/12/12 02:08:26;;;;;;;16.62;10.23;;;;;;;-1.74;95.49;99142.22;1724096;82;27512;-77
2022/12/12 02:10:52;;;;;;;15.70;9.48;;;;;;;-1.73;95.36;99138.61;1717412;82;25746;-77
2022/12/12 02:13:23;;;;;;;18.02;11.05;;;;;;;-1.74;95.25;99142.22;1714219;82;25889;-77
2022/12/12 02:16:07;;;;;;;18.00;10.50;;;;;;;-1.74;95.39;99135.66;1712048;82;25816;-77
2022/12/12 02:19:01;;;;;;;20.40;11.57;;;;;;;-1.77;95.29;99136.77;1715434;82;26374;-77
2022/12/12 02:21:53;;;;;;;18.90;10.70;;;;;;;-1.78;95.30;99136.44;1716206;82;27452;-77
2022/12/12 02:24:38;;;;;;;17.60;10.35;;;;;;;-1.77;95.39;99137.24;1718119;82;25907;-77
2022/12/12 02:27:25;;;;;;;22.07;10.75;;;;;;;-1.76;95.48;99133.66;1723666;82;25273;-77
2022/12/12 02:30:08;;;;;;;15.60;8.68;;;;;;;-1.74;95.52;99131.72;1720253;81;25892;-77
2022/12/12 02:33:04;;;;;;;14.85;9.60;;;;;;;-1.75;95.34;99128.27;1728919;81;25877;-77
2022/12/12 02:35:48;;;;;;;15.85;9.55;;;;;;;-1.79;95.35;99128.69;1722359;81;28431;-77
2022/12/12 02:38:49;;;;;;;16.77;10.70;;;;;;;-1.81;95.42;99126.70;1722442;82;26488;-77
2022/12/12 02:41:37;;;;;;;19.60;10.60;;;;;;;-1.82;95.49;99130.31;1727200;81;25745;-77
2022/12/12 02:44:15;;;;;;;19.82;11.25;;;;;;;-1.84;95.59;99128.31;1724657;81;25877;-77
2022/12/12 02:47:18;;;;;;;17.40;10.25;;;;;;;-1.83;95.63;99132.58;1732354;81;25829;-77
2022/12/12 02:49:53;;;;;;;21.02;12.28;;;;;;;-1.84;95.69;99126.50;1725157;81;27456;-77
2022/12/12 02:52:19;;;;;;;15.15;9.10;;;;;;;-1.80;95.80;99130.99;1724651;82;25921;-77
2022/12/12 02:54:47;;;;;;;19.20;11.05;;;;;;;-1.80;95.74;99135.77;1721630;81;25910;-77
2022/12/12 02:57:20;;;;;;;19.35;10.68;;;;;;;-1.81;95.78;99138.03;1721938;82;25804;-77
2022/12/12 02:59:57;;;;;;;16.00;10.13;;;;;;;-1.80;95.77;99128.37;1725056;81;25889;-77
2022/12/12 03:02:37;;;;;;;18.00;10.08;;;;;;;-1.81;95.83;99133.27;1724718;82;26871;-77
2022/12/12 03:08:48;;;;;;;;;;;;;;;-1.81;96.03;99126.70;1710030;82;26630;-77
2022/12/12 03:11:38;;;;;;;16.97;9.40;;;;;;;-1.82;96.13;99129.00;1698803;82;26606;-78
2022/12/12 03:14:13;;;;;;;17.35;9.03;;;;;;;-1.81;96.38;99130.64;1729364;82;25768;-78
2022/12/12 03:17:00;;;;;;;15.23;9.23;;;;;;;-1.82;96.41;99124.55;1722893;82;28263;-78
2022/12/12 03:19:47;;;;;;;15.65;8.95;;;;;;;-1.80;96.55;99123.12;1725278;82;25738;-76
2022/12/12 03:22:19;;;;;;;16.30;10.18;;;;;;;-1.79;96.72;99123.44;1719134;82;25862;-77
2022/12/12 03:24:54;;;;;;;16.02;9.75;;;;;;;-1.78;96.79;99123.32;1722495;81;25770;-77
2022/12/12 03:27:37;;;;;;;15.80;9.00;;;;;;;-1.76;96.86;99114.81;1723930;81;25604;-77
2022/12/12 03:30:10;;;;;;;16.82;9.75;;;;;;;-1.74;96.97;99122.05;1718593;81;28245;-77
2022/12/12 03:32:59;;;;;;;11.83;7.45;;;;;;;-1.73;97.07;99119.75;1720106;82;25802;-77
2022/12/12 03:35:36;;;;;;;15.23;9.13;;;;;;;-1.70;97.13;99116.85;1731605;81;25887;-77
2022/12/12 03:38:18;;;;;;;20.77;10.25;;;;;;;-1.67;97.18;99115.23;1719755;82;26539;-77
2022/12/12 03:40:54;;;;;;;16.23;8.25;;;;;;;-1.65;97.27;99119.84;1705252;81;25734;-77
2022/12/12 03:43:38;;;;;;;20.85;10.50;;;;;;;-1.62;97.33;99118.25;1723235;82;27457;-77
2022/12/12 03:46:23;;;;;;;15.55;9.13;;;;;;;-1.60;97.39;99118.94;1714311;81;26503;-77
2022/12/12 03:48:58;;;;;;;19.00;9.80;;;;;;;-1.57;97.42;99118.66;1730280;82;25797;-77
2022/12/12 03:51:31;;;;;;;15.60;8.75;;;;;;;-1.56;97.36;99113.73;1703244;83;25791;-77
2022/12/12 03:54:06;;;;;;;15.23;9.00;;;;;;;-1.56;97.44;99107.64;1733646;81;25688;-77
2022/12/12 03:56:55;;;;;;;15.32;8.90;;;;;;;-1.56;97.46;99107.64;1725662;81;27625;-77
2022/12/12 03:59:27;;;;;;;14.28;8.35;;;;;;;-1.54;97.58;99111.45;1712473;82;25794;-77
2022/12/12 04:02:03;;;;;;;14.15;7.95;;;;;;;-1.55;97.65;99101.44;1724790;82;25799;-77
2022/12/12 04:04:44;;;;;;;14.18;8.45;;;;;;;-1.52;97.75;99108.20;1728743;81;25756;-77
2022/12/12 04:07:18;;;;;;;14.63;8.73;;;;;;;-1.51;97.78;99100.64;1724240;81;25885;-77
2022/12/12 04:13:02;;;;;;;16.15;8.63;;;;;;;-1.49;97.95;99098.22;1730596;81;25697;-77
2022/12/12 04:15:50;;;;;;;12.93;7.72;;;;;;;-1.47;98.01;99100.20;1704980;82;25633;-77
2022/12/12 04:18:34;;;;;;;10.80;7.33;;;;;;;-1.45;98.09;99102.70;1723083;81;25782;-77
2022/12/12 04:24:27;;;;;;;16.20;8.35;;;;;;;-1.44;98.14;99102.55;1724248;82;27461;-78
2022/12/12 04:27:10;;;;;;;18.65;9.95;;;;;;;-1.43;98.27;99100.25;1736279;82;26104;-77
2022/12/12 04:29:59;;;;;;;15.13;9.65;;;;;;;-1.40;98.33;99093.87;1727549;81;25737;-78
2022/12/12 04:32:39;;;;;;;16.17;9.80;;;;;;;-1.39;98.35;99098.98;1729640;82;25776;-77
2022/12/12 04:35:30;;;;;;;19.65;11.08;;;;;;;-1.39;98.40;99099.48;1735065;81;25750;-78
2022/12/12 04:38:03;;;;;;;23.00;11.80;;;;;;;-1.37;98.49;99101.00;1710453;82;28275;-78
2022/12/12 04:40:35;;;;;;;22.45;11.48;;;;;;;-1.35;98.53;99102.16;1728307;81;25707;-77
2022/12/12 04:43:07;;;;;;;20.57;11.33;;;;;;;-1.35;98.59;99099.52;1727517;82;25874;-78
2022/12/12 04:45:37;;;;;;;23.15;12.58;;;;;;;-1.34;98.64;99100.68;1728749;81;25842;-78
2022/12/12 04:48:07;;;;;;;19.77;12.05;;;;;;;-1.32;98.74;99100.52;1726849;82;25953;-77
2022/12/12 04:50:35;;;;;;;21.48;11.30;;;;;;;-1.30;98.75;99094.63;1728225;81;28250;-78
2022/12/12 04:53:06;;;;;;;20.05;11.53;;;;;;;-1.31;98.75;99100.40;1735086;81;25836;-77
2022/12/12 04:55:41;;;;;;;16.10;10.63;;;;;;;-1.30;98.77;99092.84;1733287;82;25930;-78
2022/12/12 04:58:08;;;;;;;19.85;11.63;;;;;;;-1.28;98.85;99084.84;1719682;81;26027;-78
2022/12/12 05:01:06;;;;;;;24.47;11.95;;;;;;;-1.28;98.89;99089.58;1712789;82;25744;-78
2022/12/12 05:03:41;;;;;;;22.52;12.78;;;;;;;-1.25;98.95;99085.83;1723628;82;26869;-77
2022/12/12 05:06:12;;;;;;;22.73;12.53;;;;;;;-1.21;99.04;99083.24;1728486;81;25945;-77
2022/12/12 05:08:44;;;;;;;21.02;13.13;;;;;;;-1.20;99.05;99084.91;1719617;81;25934;-78
2022/12/12 05:11:11;;;;;;;;;;;;;;;-1.21;99.07;99085.39;1727651;81;26593;-78
2022/12/12 05:13:41;;;;;;;24.72;12.80;;;;;;;-1.20;99.12;99084.91;1701115;82;25816;-78
2022/12/12 05:16:28;;;;;;;25.48;13.93;;;;;;;-1.21;99.26;99084.55;1721236;82;27464;-78
2022/12/12 05:18:54;;;;;;;24.92;14.18;;;;;;;-1.20;99.36;99079.66;1715206;82;26619;-77
2022/12/12 05:21:21;;;;;;;30.02;14.68;;;;;;;-1.20;99.45;99088.37;1688935;81;25878;-78
2022/12/12 05:23:47;;;;;;;28.17;15.98;;;;;;;-1.21;99.51;99085.39;1700911;83;26560;-77
2022/12/12 05:26:27;;;;;;;30.12;15.95;;;;;;;-1.19;99.58;99083.92;1724980;81;25272;-78
2022/12/12 05:28:55;;;;;;;29.32;16.70;;;;;;;-1.17;99.70;99084.11;1734620;81;27412;-78
2022/12/12 05:31:21;;;;;;;31.50;16.73;;;;;;;-1.15;99.76;99080.84;1717476;82;25615;-77
2022/12/12 05:33:48;;;;;;;28.30;15.83;;;;;;;-1.13;99.85;99086.77;1717755;82;26021;-78
2022/12/12 05:36:15;;;;;;;32.13;16.65;;;;;;;-1.10;99.84;99081.23;1726354;81;27080;-78
2022/12/12 05:38:42;;;;;;;30.72;17.27;;;;;;;-1.08;99.87;99080.59;1714785;82;25709;-78
2022/12/12 05:41:09;;;;;;;27.60;16.00;;;;;;;-1.06;99.92;99081.75;1716321;82;27706;-78
2022/12/12 05:43:35;;;;;;;30.12;16.77;;;;;;;-1.04;99.90;99074.54;1714917;82;25757;-78
2022/12/12 05:46:02;;;;;;;27.45;15.35;;;;;;;-1.02;99.91;99072.11;1715992;82;25805;-77
2022/12/12 05:48:28;;;;;;;27.42;15.40;;;;;;;-0.99;99.94;99076.23;1714581;82;25831;-78
2022/12/12 05:50:55;;;;;;;26.12;14.87;;;;;;;-0.97;100.00;99071.17;1715169;82;25722;-77
2022/12/12 05:53:22;;;;;;;30.48;17.00;;;;;;;-0.93;99.95;99071.69;1719234;82;27377;-78
2022/12/12 05:55:50;;;;;;;27.05;15.38;;;;;;;-0.91;99.96;99068.42;1714648;82;25939;-77
2022/12/12 05:58:19;;;;;;;27.17;13.83;;;;;;;-0.90;99.91;99062.20;1714395;81;26453;-77
2022/12/12 06:00:48;;;;;;;23.95;13.93;;;;;;;-0.89;99.93;99058.58;1714648;82;26428;-77
2022/12/12 06:03:15;;;;;;;22.65;14.30;;;;;;;-0.91;100.00;99061.37;1714465;82;26391;-78
2022/12/12 06:05:42;;;;;;;25.08;14.80;;;;;;;-0.88;100.00;99064.19;1714460;82;27471;-78
2022/12/12 06:08:08;;;;;;;23.67;14.60;;;;;;;-0.86;100.00;99059.12;1714847;82;25897;-78
2022/12/12 06:10:35;;;;;;;29.05;14.10;;;;;;;-0.83;100.00;99059.28;1714145;82;25895;-78
2022/12/12 06:13:01;;;;;;;26.10;14.68;;;;;;;-0.82;100.00;99062.26;1714994;82;25781;-77
2022/12/12 06:15:28;;;;;;;26.75;15.63;;;;;;;-0.82;100.00;99057.00;1713906;82;25836;-78
2022/12/12 06:17:54;;;;;;;21.93;12.82;;;;;;;-0.80;100.00;99062.45;1714713;82;28257;-78
2022/12/12 06:20:20;;;;;;;25.02;13.62;;;;;;;-0.76;100.00;99065.59;1722939;82;25917;-77
2022/12/12 06:22:47;;;;;;;26.65;14.75;;;;;;;-0.75;100.00;99064.63;1716473;82;25710;-77
2022/12/12 06:25:13;;;;;;;26.30;15.20;;;;;;;-0.75;100.00;99065.94;1714599;82;25976;-78
2022/12/12 06:27:39;;;;;;;24.27;14.75;;;;;;;-0.72;100.00;99069.56;1713466;82;26127;-77
2022/12/12 06:30:08;;;;;;;26.33;14.93;;;;;;;-0.71;100.00;99073.85;1719629;82;27453;-77
2022/12/12 06:32:34;;;;;;;22.93;14.68;;;;;;;-0.71;100.00;99076.48;1722757;81;25797;-77
2022/12/12 06:35:00;;;;;;;26.10;14.40;;;;;;;-0.66;100.00;99077.34;1714015;82;26473;-77
2022/12/12 06:37:27;;;;;;;23.65;14.38;;;;;;;-0.64;100.00;99078.81;1727790;82;25935;-77
2022/12/12 06:39:53;;;;;;;21.00;13.78;;;;;;;-0.64;100.00;99076.19;1721801;82;25579;-77
2022/12/12 06:42:19;;;;;;;26.55;13.85;;;;;;;-0.61;100.00;99076.38;1727065;82;27538;-77
2022/12/12 06:44:46;;;;;;;21.85;12.40;;;;;;;-0.60;100.00;99081.50;1722643;82;25749;-77
2022/12/12 06:47:12;;;;;;;26.65;15.18;;;;;;;-0.59;100.00;99083.14;1705611;82;25770;-77
2022/12/12 06:49:38;;;;;;;26.93;14.63;;;;;;;-0.59;100.00;99089.71;1729789;82;25796;-78
2022/12/12 06:52:05;;;;;;;24.65;13.60;;;;;;;-0.59;100.00;99083.62;1730486;81;25689;-77
2022/12/12 06:54:31;;;;;;;26.50;15.08;;;;;;;-0.58;100.00;99083.48;1722791;81;28282;-78
2022/12/12 06:56:58;;;;;;;29.98;16.37;;;;;;;-0.57;100.00;99088.23;1719223;81;25879;-77
2022/12/12 06:59:24;;;;;;;26.97;14.65;;;;;;;-0.57;100.00;99087.75;1732648;81;25854;-78
2022/12/12 07:01:50;;;;;;;21.68;12.45;;;;;;;-0.58;100.00;99081.34;1732953;81;25791;-77
2022/12/12 07:04:16;;;;;;;25.00;13.90;;;;;;;-0.56;100.00;99084.64;1723358;81;25799;-77
2022/12/12 07:06:43;;;;;;;25.10;15.13;;;;;;;-0.54;100.00;99084.83;1722867;82;28238;-77
2022/12/12 07:09:09;;;;;;;28.67;16.17;;;;;;;-0.56;100.00;99085.95;1732083;81;26484;-77
2022/12/12 07:11:35;;;;;;;26.33;14.95;;;;;;;-0.55;100.00;99086.27;1703193;82;25829;-77
2022/12/12 07:14:04;;;;;;;26.93;15.55;;;;;;;-0.51;100.00;99086.33;1726043;82;25762;-77
2022/12/12 07:16:30;;;;;;;26.05;15.80;;;;;;;-0.49;100.00;99082.55;1736741;81;25833;-77
2022/12/12 07:18:57;;;;;;;22.35;16.05;;;;;;;-0.46;100.00;99086.67;1727729;81;27444;-77
2022/12/12 07:21:23;;;;;;;20.23;12.55;;;;;;;-0.42;100.00;99088.02;1728139;81;26273;-77
2022/12/12 07:23:52;;;;;;;22.35;13.85;;;;;;;-0.40;100.00;99084.26;1731075;82;25295;-77
2022/12/12 07:26:21;;;;;;;26.95;15.55;;;;;;;-0.36;100.00;99083.45;1723272;81;26552;-77
2022/12/12 07:28:50;;;;;;;22.10;14.03;;;;;;;-0.34;100.00;99088.90;1705099;82;26338;-77
2022/12/12 07:31:20;;;;;;;27.13;15.65;;;;;;;-0.31;100.00;99090.40;1734162;82;27536;-78
2022/12/12 07:33:47;;;;;;;22.40;14.83;;;;;;;-0.30;100.00;99088.92;1736061;81;25864;-78
2022/12/12 07:36:15;;;;;;;22.98;12.88;;;;;;;-0.27;100.00;99087.30;1724631;81;25787;-77
2022/12/12 07:38:43;;;;;;;21.33;13.25;;;;;;;-0.24;100.00;99088.81;1708473;83;25829;-77
2022/12/12 07:41:14;;;;;;;19.45;13.13;;;;;;;-0.23;100.00;99086.50;1734710;82;25948;-78
2022/12/12 07:43:42;;;;;;;;;;;;;;;-0.21;100.00;99087.16;1718253;81;27158;-77
2022/12/12 07:46:11;;;;;;;19.77;12.50;;;;;;;-0.20;100.00;99093.61;1719101;82;25855;-77
2022/12/12 07:48:38;;;;;;;22.10;11.85;;;;;;;-0.18;100.00;99087.70;1728217;81;26095;-77
2022/12/12 07:51:04;;;;;;;19.82;13.58;;;;;;;-0.15;100.00;99087.37;1738722;81;25763;-78
2022/12/12 07:53:31;;;;;;;15.88;11.22;;;;;;;-0.12;100.00;99097.59;1718736;81;25838;-77
2022/12/12 07:55:57;;;;;;;20.20;12.60;;;;;;;-0.08;100.00;99102.88;1725731;82;28281;-78
2022/12/12 07:58:25;;;;;;;17.35;11.18;;;;;;;-0.07;100.00;99101.91;1707905;83;26021;-78
2022/12/12 08:00:52;;;;;;;17.52;11.57;;;;;;;-0.02;100.00;99102.73;1728020;81;25863;-77
2022/12/12 08:03:18;;;;;;;15.23;10.45;;;;;;;0.00;100.00;99104.75;1722860;82;25829;-78
2022/12/12 08:05:44;;;;;;;14.75;10.32;;;;;;;0.03;100.00;99103.59;1724429;82;25873;-78
2022/12/12 08:08:11;;;;;;;16.15;10.18;;;;;;;0.07;100.00;99106.23;1731424;81;28717;-78
2022/12/12 08:10:39;;;;;;;15.72;10.53;;;;;;;0.10;100.00;99106.77;1725096;81;25896;-77
2022/12/12 08:13:06;;;;;;;14.55;9.63;;;;;;;0.12;100.00;99114.02;1694604;82;25712;-77
2022/12/12 08:15:33;;;;;;;16.62;10.75;;;;;;;0.15;100.00;99120.27;1721010;82;25773;-77
2022/12/12 08:18:00;;;;;;;13.15;9.15;;;;;;;0.17;100.00;99115.67;1724033;82;25759;-77
2022/12/12 08:20:26;;;;;;;13.08;8.95;;;;;;;0.20;100.00;99116.69;1728605;81;27462;-78
2022/12/12 08:22:53;;;;;;;14.98;8.93;;;;;;;0.22;100.00;99115.20;1729591;81;25895;-77
2022/12/12 08:25:19;;;;;;;15.23;9.30;;;;;;;0.24;100.00;99121.97;1724134;81;25809;-77
2022/12/12 08:27:46;;;;;;;12.98;8.35;;;;;;;0.26;100.00;99120.00;1723109;82;25876;-77
2022/12/12 08:30:12;;;;;;;12.45;8.70;;;;;;;0.29;100.00;99117.06;1729479;82;26082;-77
2022/12/12 08:32:39;;;;;;;12.55;7.97;;;;;;;0.31;100.00;99122.16;1711048;82;27473;-78
2022/12/12 08:35:06;;;;;;;15.25;9.00;;;;;;;0.33;100.00;99118.39;1723947;82;25779;-77
2022/12/12 08:37:33;;;;;;;11.78;8.68;;;;;;;0.37;100.00;99114.45;1727918;81;25928;-77
2022/12/12 08:39:59;;;;;;;13.72;7.42;;;;;;;0.39;99.86;99118.23;1721766;81;25838;-78
2022/12/12 08:42:25;;;;;;;13.65;7.97;;;;;;;0.41;99.83;99114.47;1733535;82;25766;-78
2022/12/12 08:44:52;;;;;;;12.82;7.72;;;;;;;0.44;99.64;99115.97;1723321;81;28177;-78
2022/12/12 08:47:18;;;;;;;14.20;7.25;;;;;;;0.43;99.40;99116.94;1724629;82;25836;-78
2022/12/12 08:49:44;;;;;;;13.35;8.48;;;;;;;0.43;99.29;99117.77;1735056;81;25761;-78
2022/12/12 08:52:10;;;;;;;14.98;8.10;;;;;;;0.44;99.25;99112.84;1726957;81;25806;-77
2022/12/12 08:54:37;;;;;;;11.85;6.70;;;;;;;0.47;99.26;99115.15;1724790;82;25710;-77
2022/12/12 08:57:03;;;;;;;12.18;7.35;;;;;;;0.50;99.13;99116.16;1727203;81;27467;-78
2022/12/12 08:59:32;;;;;;;12.68;6.87;;;;;;;0.53;99.10;99113.70;1729463;81;25923;-77
2022/12/12 09:01:58;;;;;;;15.23;7.17;;;;;;;0.55;99.04;99113.89;1727467;81;25861;-78
2022/12/12 09:04:24;;;;;;;12.43;9.58;;;;;;;0.59;99.03;99109.94;1726172;82;25968;-78
2022/12/12 09:06:51;;;;;;;15.48;7.22;;;;;;;0.64;98.92;99106.83;1728353;82;25718;-78
2022/12/12 09:09:17;;;;;;;11.12;6.42;;;;;;;0.65;98.75;99109.30;1715821;81;28293;-77
2022/12/12 09:11:43;;;;;;;14.23;6.75;;;;;;;0.66;98.57;99106.98;1730839;81;25832;-78
2022/12/12 09:14:10;;;;;;;12.60;7.47;;;;;;;0.67;98.48;99106.49;1720864;81;25710;-77
2022/12/12 09:16:36;;;;;;;13.05;6.40;;;;;;;0.71;98.59;99102.55;1718272;81;25777;-77
2022/12/12 09:19:03;;;;;;;12.18;5.58;;;;;;;0.76;98.63;99105.53;1720490;81;25931;-78
2022/12/12 09:21:29;;;;;;;12.37;6.90;;;;;;;0.78;98.14;99108.83;1721726;82;27599;-77
2022/12/12 09:23:55;;;;;;;21.37;10.98;;;;;;;0.78;98.08;99110.16;1719654;82;25730;-78
2022/12/12 09:26:22;;;;;;;11.45;6.78;;;;;;;0.78;98.00;99103.56;1717938;82;25806;-77
2022/12/12 09:28:49;;;;;;;11.55;6.22;;;;;;;0.81;98.02;99103.25;1714742;82;26382;-77
2022/12/12 09:31:15;;;;;;;10.78;5.17;;;;;;;0.83;97.93;99101.77;1719074;82;25782;-78
2022/12/12 09:33:42;;;;;;;12.73;6.05;;;;;;;0.85;97.78;99103.27;1716819;82;27495;-77
2022/12/12 09:36:10;;;;;;;13.22;5.33;;;;;;;0.87;97.66;99107.88;1724736;82;25822;-77
2022/12/12 09:38:37;;;;;;;10.15;6.03;;;;;;;0.86;97.42;99104.89;1723929;82;25863;-77
2022/12/12 09:41:17;;;;;;;10.45;5.90;;;;;;;0.88;97.47;99104.75;1725008;81;27154;-78
2022/12/12 09:44:08;;;;;;;9.60;5.95;;;;;;;0.90;97.36;99111.48;1721023;82;25851;-78
2022/12/12 09:46:52;;;;;;;13.80;6.15;;;;;;;0.95;97.41;99111.84;1705585;82;28291;-78
2022/12/12 09:49:46;;;;;;;10.15;6.12;;;;;;;0.99;97.38;99109.69;1702840;82;26274;-78
2022/12/12 09:52:23;;;;;;;8.58;5.40;;;;;;;1.04;97.25;99120.10;1708226;83;25790;-78
2022/12/12 09:54:49;;;;;;;19.77;10.63;;;;;;;1.06;96.86;99123.88;1727507;81;26375;-78
2022/12/12 09:57:23;;;;;;;12.10;7.33;;;;;;;1.08;96.82;99116.15;1703190;81;26048;-78
2022/12/12 10:00:09;;;;;;;13.68;7.12;;;;;;;1.13;96.87;99123.58;1720111;81;28758;-78
2022/12/12 10:02:49;;;;;;;15.35;7.80;;;;;;;1.15;96.71;99120.28;1727735;82;25846;-78
2022/12/12 10:05:57;;;;;;;14.70;7.67;;;;;;;1.20;96.63;99126.70;1728134;81;25849;-78
2022/12/12 10:08:50;;;;;;;17.17;7.80;;;;;;;1.24;96.63;99126.70;1728918;82;25775;-77
2022/12/12 10:14:16;;;;;;;22.80;10.20;;;;;;;1.30;96.29;99122.61;1719602;81;27471;-76
2022/12/12 10:16:43;;;;;;;21.95;11.28;;;;;;;1.33;96.25;99117.81;1724763;81;25701;-77
2022/12/12 10:19:21;;;;;;;34.63;15.78;;;;;;;1.37;96.12;99115.66;1727654;81;25816;-77
2022/12/12 10:21:51;;;;;;;27.93;14.70;;;;;;;1.38;96.03;99114.69;1715536;82;25849;-77
2022/12/12 10:24:31;;;;;;;23.22;10.72;;;;;;;1.41;95.98;99115.17;1728642;81;25884;-77
2022/12/12 10:27:00;;;;;;;13.90;8.33;;;;;;;1.47;96.01;99124.27;1695318;83;27412;-77
2022/12/12 10:29:26;;;;;;;14.65;7.55;;;;;;;1.53;95.89;99119.15;1728178;82;25612;-77
2022/12/12 10:32:13;;;;;;;13.32;6.03;;;;;;;1.59;95.72;99117.65;1724813;82;25761;-77
2022/12/12 10:35:03;;;;;;;10.85;6.12;;;;;;;1.68;95.60;99115.83;1722263;82;25925;-78
2022/12/12 10:37:41;;;;;;;11.80;5.72;;;;;;;1.73;95.12;99117.00;1724377;82;26424;-77
2022/12/12 10:40:25;;;;;;;11.38;5.67;;;;;;;1.78;95.05;99119.94;1700618;82;28315;-78
2022/12/12 10:43:21;;;;;;;10.53;5.92;;;;;;;1.79;94.71;99119.45;1722296;82;26425;-78
2022/12/12 10:46:17;;;;;;;13.88;6.15;;;;;;;1.79;94.50;99115.00;1714839;82;25781;-77
2022/12/12 10:48:46;;;;;;;11.78;7.42;;;;;;;1.78;94.41;99118.63;1679089;84;25833;-77
2022/12/12 10:51:16;;;;;;;10.50;5.67;;;;;;;1.78;94.29;99115.98;1670271;84;25867;-77
2022/12/12 10:53:43;;;;;;;10.50;6.62;;;;;;;1.74;94.18;99109.39;1697257;82;26984;-77
2022/12/12 10:56:21;;;;;;;11.08;6.05;;;;;;;1.77;94.33;99113.03;1720948;81;25737;-77
2022/12/12 10:59:00;;;;;;;12.90;7.15;;;;;;;1.78;94.35;99112.02;1721883;82;26124;-77
2022/12/12 11:01:36;;;;;;;13.90;7.40;;;;;;;1.83;94.48;99120.27;1726211;82;25798;-78
2022/12/12 11:04:04;;;;;;;13.85;8.25;;;;;;;1.85;94.27;99115.66;1718249;81;26562;-76
2022/12/12 11:06:36;;;;;;;15.05;9.78;;;;;;;1.83;93.87;99115.48;1727111;82;27464;-76
2022/12/12 11:09:22;;;;;;;13.08;7.05;;;;;;;1.80;93.90;99115.31;1729719;81;25858;-76
2022/12/12 11:12:12;;;;;;;12.07;7.97;;;;;;;1.80;93.78;99116.64;1710681;82;26505;-77
2022/12/12 11:14:49;;;;;;;13.93;8.00;;;;;;;1.75;93.53;99118.97;1728459;82;25780;-78
2022/12/12 11:17:29;;;;;;;15.32;8.33;;;;;;;1.74;93.74;99123.91;1724791;81;26158;-78
2022/12/12 11:19:59;;;;;;;13.95;8.43;;;;;;;1.73;93.68;99120.95;1735307;81;28332;-78
2022/12/12 11:22:29;;;;;;;15.25;7.55;;;;;;;1.71;93.62;99116.31;1722505;81;25897;-77
2022/12/12 11:24:56;;;;;;;17.23;9.45;;;;;;;1.69;93.60;99124.89;1725990;81;26352;-78
2022/12/12 11:27:33;;;;;;;15.03;9.23;;;;;;;1.69;93.88;99116.97;1725087;82;26502;-78
2022/12/12 11:30:23;;;;;;;20.75;9.73;;;;;;;1.70;93.80;99118.64;1726824;81;25746;-77
2022/12/12 11:32:53;;;;;;;23.92;13.32;;;;;;;1.69;93.65;99114.86;1724127;82;28836;-77
2022/12/12 11:35:28;;;;;;;20.90;10.90;;;;;;;1.69;93.74;99114.34;1727259;82;25866;-77
2022/12/12 11:38:02;;;;;;;14.85;8.88;;;;;;;1.66;93.51;99110.73;1725334;81;25819;-77
2022/12/12 11:40:35;;;;;;;16.15;8.78;;;;;;;1.63;93.51;99110.22;1726846;82;25890;-77
2022/12/12 11:43:25;;;;;;;14.65;9.83;;;;;;;1.64;93.67;99117.16;1727206;82;25928;-78
2022/12/12 11:46:16;;;;;;;10.90;7.87;;;;;;;1.65;93.55;99118.30;1722555;82;28864;-77
2022/12/12 11:48:59;;;;;;;14.80;8.10;;;;;;;1.65;93.43;99118.30;1723398;82;25278;-77
2022/12/12 11:51:44;;;;;;;13.10;8.35;;;;;;;1.62;93.46;99116.50;1701381;83;25799;-77
2022/12/12 11:54:24;;;;;;;17.32;9.00;;;;;;;1.60;93.44;99121.12;1722793;81;26657;-77
2022/12/12 11:57:11;;;;;;;14.13;8.15;;;;;;;1.58;93.53;99120.47;1725737;82;26393;-77
2022/12/12 12:00:04;;;;;;;15.32;8.48;;;;;;;1.54;93.37;99120.78;1725782;82;27413;-77